map of GAE home
GAE - Airport
Location
City:  Gabs, Tunisia
Name:Matmata International Airport
ICAO:DTTG
IATA:GAE

Details
Type:Airport (Aerodrome, Airfield)
Use:Public/Civil, Military, International (customs port of entry)
Latitude:3343'57"N (33.732500)
Longitude:954'58"E (9.916111)
Elevation:410 ft (125 m)
Variation:2.27E (WMM2015 magnetic declination)
0.09 annual change
Runways:1
Longest:9869 × 148 ft (3008 × 45 m), paved

Time
Time Zone:UTC+1
Local Time:

Weather
METAR:DTTG 190900Z 24015KT CAVOK 12/01 Q1027

Related Locations
Nearby:
Farthest:GIS: 11693 mi / 18817 km
Gisborne, GIS, NZ

Find:

   beyond  
but within

Other Information
Maps:
NOTAMs:
Links:
Sources:

  
  • flag of Tunisia
  

Sectional Chart

Flight Planning
at skyvector.com

Satellite Image

Google Maps Satellite view

 

Copyright © 2004-2018 Karl L. Swartz. All rights reserved.
The Great Circle Mapper name and logo are trademarks of the Great Circle Mapper.
All other trademarks mentioned herein belong to their respective owners.
Please see credits for attibutions and further copyright information.

  Follow gcmap on Facebook Follow gcmap on Twitter Follow gcmap on Google+ GCmap on LinkedIn

hCard Microformat

Geo Microformat